Time;durP1;ratioP1;P1;durP2;ratioP2;P2;SDS_P1;SDS_P2;PMS_P1;PMS_P2;Temp;Humidity;BMP_temperature;BMP_pressure;BME280_temperature;BME280_humidity;BME280_pressure;Samples;Min_cycle;Max_cycle;Signal;HPM_P1;HPM_P2
2023/10/03 00:00:24;;;;;;;134.52;127.00;;;;;;;22.11;57.68;100928.16;4965179;28;20027;-68
2023/10/03 00:02:55;;;;;;;135.65;127.18;;;;;;;22.10;57.81;100918.25;4967289;28;20113;-67
2023/10/03 00:05:22;;;;;;;140.63;131.57;;;;;;;22.09;57.52;100909.19;4965400;28;20336;-69
2023/10/03 00:07:55;;;;;;;137.20;129.55;;;;;;;22.09;58.03;100908.41;4962602;28;20057;-68
2023/10/03 00:10:21;;;;;;;137.45;129.45;;;;;;;22.07;57.81;100910.66;4961475;28;21608;-69
2023/10/03 00:12:51;;;;;;;135.50;127.72;;;;;;;22.06;57.65;100911.78;4965831;28;20076;-67
2023/10/03 00:15:24;;;;;;;133.15;124.97;;;;;;;22.07;57.66;100916.16;4968288;28;20422;-67
2023/10/03 00:17:50;;;;;;;133.93;126.13;;;;;;;22.04;57.45;100904.66;4965418;28;20041;-66
2023/10/03 00:20:16;;;;;;;140.05;131.10;;;;;;;22.03;57.61;100903.03;4967102;28;20029;-66
2023/10/03 00:22:42;;;;;;;136.50;128.25;;;;;;;22.04;57.68;100890.09;4963274;28;20031;-68
2023/10/03 00:25:17;;;;;;;137.05;128.68;;;;;;;22.00;57.76;100878.91;4966951;28;20027;-67
2023/10/03 00:27:46;;;;;;;135.52;127.50;;;;;;;22.01;57.64;100875.03;4965259;28;20054;-67
2023/10/03 00:30:14;;;;;;;136.63;127.93;;;;;;;21.99;57.86;100870.97;4966479;28;20058;-67
2023/10/03 00:32:41;;;;;;;139.13;131.07;;;;;;;21.98;57.82;100861.13;4962456;28;20050;-67
2023/10/03 00:35:08;;;;;;;138.63;130.57;;;;;;;21.96;57.51;100860.63;4967519;28;20105;-67
2023/10/03 00:37:34;;;;;;;133.85;126.85;;;;;;;21.96;57.54;100861.41;4977819;28;20122;-67
2023/10/03 00:40:00;;;;;;;135.55;127.18;;;;;;;21.97;57.59;100848.47;4966807;28;20090;-66
2023/10/03 00:42:25;;;;;;;135.60;128.13;;;;;;;21.95;57.61;100851.56;4965220;28;20145;-69
2023/10/03 00:44:52;;;;;;;135.77;128.18;;;;;;;21.94;57.38;100841.66;4968313;28;20030;-67
2023/10/03 00:47:18;;;;;;;135.07;126.93;;;;;;;21.94;57.63;100827.09;4964259;28;20491;-66
2023/10/03 00:49:43;;;;;;;133.82;126.07;;;;;;;21.92;57.48;100824.66;4965785;28;20147;-66
2023/10/03 00:52:10;;;;;;;139.07;130.68;;;;;;;21.91;57.50;100834.06;4960776;28;20042;-66
2023/10/03 00:54:36;;;;;;;134.27;126.40;;;;;;;21.91;57.69;100825.81;4965680;28;20100;-66
2023/10/03 00:57:02;;;;;;;135.75;128.27;;;;;;;21.91;57.65;100811.25;4965411;28;20042;-67
2023/10/03 00:59:28;;;;;;;133.85;125.88;;;;;;;21.90;57.89;100817.84;4966366;28;20069;-69
2023/10/03 01:02:02;;;;;;;131.57;123.85;;;;;;;21.89;57.42;100803.31;4961564;28;20041;-67
2023/10/03 01:04:31;;;;;;;132.73;124.88;;;;;;;21.88;57.50;100806.38;4966741;28;20030;-68
2023/10/03 01:06:59;;;;;;;135.70;126.25;;;;;;;21.87;57.60;100800.06;4960706;28;20100;-66
2023/10/03 01:09:28;;;;;;;136.63;127.93;;;;;;;21.87;57.85;100804.75;4961834;28;20190;-67
2023/10/03 01:11:55;;;;;;;137.43;129.98;;;;;;;21.86;57.81;100794.88;4962512;28;20035;-66
2023/10/03 01:14:21;;;;;;;135.18;127.30;;;;;;;21.86;57.41;100798.44;4960913;28;20035;-66
2023/10/03 01:16:46;;;;;;;136.23;128.82;;;;;;;21.82;57.61;100800.19;4964461;28;20050;-66
2023/10/03 01:19:20;;;;;;;131.98;124.63;;;;;;;21.82;57.31;100797.44;4960119;28;20043;-67
2023/10/03 01:21:46;;;;;;;130.48;122.93;;;;;;;21.81;57.63;100801.34;4967253;28;20125;-66
2023/10/03 01:24:20;;;;;;;131.13;123.80;;;;;;;21.80;57.65;100796.97;4966221;28;20034;-66
2023/10/03 01:26:46;;;;;;;131.50;122.95;;;;;;;21.79;57.73;100789.84;4967166;28;20030;-66
2023/10/03 01:29:12;;;;;;;131.93;124.15;;;;;;;21.79;57.85;100781.59;4966893;28;20093;-67
2023/10/03 01:31:39;;;;;;;126.57;118.50;;;;;;;21.79;57.89;100787.09;4964481;28;20039;-67
2023/10/03 01:34:05;;;;;;;126.55;119.03;;;;;;;21.77;57.81;100798.41;4966884;28;20045;-68
2023/10/03 01:36:31;;;;;;;127.22;120.15;;;;;;;21.75;57.81;100795.16;4962990;28;20031;-67
2023/10/03 01:38:56;;;;;;;131.82;123.70;;;;;;;21.75;57.51;100786.94;4965767;28;20043;-66
2023/10/03 01:41:22;;;;;;;128.52;120.97;;;;;;;21.74;57.55;100787.22;4965605;28;20699;-67
2023/10/03 01:43:48;;;;;;;129.15;121.35;;;;;;;21.73;57.69;100785.63;4964477;28;20061;-67
2023/10/03 01:46:13;;;;;;;131.10;123.20;;;;;;;21.71;57.51;100791.41;4961748;28;20074;-66
2023/10/03 01:48:39;;;;;;;126.30;119.22;;;;;;;21.69;57.67;100788.16;4967961;28;20072;-67
2023/10/03 01:51:06;;;;;;;126.15;119.30;;;;;;;21.70;57.97;100791.75;4964920;28;20177;-69
2023/10/03 01:53:32;;;;;;;132.40;124.75;;;;;;;21.69;57.73;100801.13;4966040;28;20035;-66
2023/10/03 01:55:57;;;;;;;129.95;121.57;;;;;;;21.68;57.52;100794.00;4966112;28;20046;-66
2023/10/03 01:58:24;;;;;;;129.00;121.60;;;;;;;21.67;57.59;100793.19;4967475;28;20039;-66
2023/10/03 02:00:50;;;;;;;129.25;121.57;;;;;;;21.67;58.05;100784.13;4973373;28;20487;-66
2023/10/03 02:03:18;;;;;;;128.15;120.70;;;;;;;21.68;57.92;100774.75;4960762;28;20043;-66
2023/10/03 02:05:44;;;;;;;132.77;124.32;;;;;;;21.67;57.89;100784.13;4966089;28;20035;-66
2023/10/03 02:08:16;;;;;;;128.18;120.93;;;;;;;21.66;57.47;100775.06;4961081;28;20127;-66
2023/10/03 02:10:46;;;;;;;131.43;123.47;;;;;;;21.66;58.00;100760.53;4958761;28;20062;-68
2023/10/03 02:13:17;;;;;;;127.38;120.05;;;;;;;21.65;57.50;100745.16;4970124;28;20030;-66
2023/10/03 02:15:44;;;;;;;126.22;118.57;;;;;;;21.65;57.71;100751.47;4970484;28;20066;-66
2023/10/03 02:18:10;;;;;;;132.52;124.70;;;;;;;21.65;57.73;100756.16;4969338;28;20481;-66
2023/10/03 02:21:02;;;;;;;122.55;114.72;;;;;;;21.66;57.61;100768.75;4965597;28;20678;-66
2023/10/03 02:23:27;;;;;;;128.07;120.13;;;;;;;21.66;57.89;100775.06;4966976;28;20035;-67
2023/10/03 02:26:07;;;;;;;126.63;119.05;;;;;;;21.66;57.76;100771.50;4968549;28;20035;-67
2023/10/03 02:28:33;;;;;;;125.78;118.60;;;;;;;21.65;57.53;100758.91;4961649;28;20045;-66
2023/10/03 02:31:01;;;;;;;127.25;120.13;;;;;;;21.64;57.61;100776.50;4966480;28;20030;-66
2023/10/03 02:33:28;;;;;;;130.20;122.93;;;;;;;21.63;57.64;100772.16;4967432;28;20446;-66
2023/10/03 02:35:54;;;;;;;130.50;122.97;;;;;;;21.63;57.94;100772.16;4968499;28;20403;-66
2023/10/03 02:38:25;;;;;;;127.00;119.53;;;;;;;21.60;57.65;100765.34;4964449;28;21078;-66
2023/10/03 02:40:57;;;;;;;128.93;121.13;;;;;;;21.59;57.66;100767.25;4972073;28;20038;-67
2023/10/03 02:43:24;;;;;;;125.50;118.32;;;;;;;21.60;57.84;100762.59;4968782;28;20476;-67
2023/10/03 02:45:49;;;;;;;128.25;120.45;;;;;;;21.58;57.80;100754.66;4967426;28;20050;-70
2023/10/03 02:48:15;;;;;;;127.97;120.43;;;;;;;21.57;57.50;100764.06;4967849;28;20046;-70
2023/10/03 02:50:46;;;;;;;126.97;119.32;;;;;;;21.56;57.49;100756.09;4970268;28;20047;-67
2023/10/03 02:53:17;;;;;;;127.00;119.97;;;;;;;21.55;57.57;100755.31;4964874;28;20040;-67
2023/10/03 02:55:43;;;;;;;126.70;119.30;;;;;;;21.54;57.69;100745.41;4965660;28;20056;-67
2023/10/03 02:58:09;;;;;;;120.90;113.90;;;;;;;21.53;57.82;100746.56;4973587;28;20543;-67
2023/10/03 03:00:37;;;;;;;122.32;115.13;;;;;;;21.53;57.58;100745.75;4971600;28;20045;-68
2023/10/03 03:03:06;;;;;;;122.43;115.60;;;;;;;21.52;57.86;100738.63;4963636;28;20509;-67
2023/10/03 03:05:36;;;;;;;122.75;116.30;;;;;;;21.51;57.92;100750.75;4966159;28;20036;-67
2023/10/03 03:10:46;;;;;;;119.88;113.47;;;;;;;21.49;57.61;100755.75;4969296;28;20478;-68
2023/10/03 03:13:13;;;;;;;124.82;118.57;;;;;;;21.48;57.81;100754.94;4969808;28;20027;-67
2023/10/03 03:15:51;;;;;;;123.93;117.05;;;;;;;21.48;57.58;100760.44;4964227;28;20129;-67
2023/10/03 03:18:21;;;;;;;120.95;114.60;;;;;;;21.46;57.98;100754.44;4966115;28;20189;-67
2023/10/03 03:20:53;;;;;;;124.35;117.57;;;;;;;21.46;57.70;100765.44;4966703;28;20042;-67
2023/10/03 03:23:20;;;;;;;123.95;117.07;;;;;;;21.46;58.02;100773.69;4962310;28;20388;-67
2023/10/03 03:25:49;;;;;;;120.57;114.18;;;;;;;21.46;58.09;100767.38;4964084;28;20057;-67
2023/10/03 03:28:15;;;;;;;121.72;115.40;;;;;;;21.45;57.98;100765.75;4965065;28;20175;-67
2023/10/03 03:30:47;;;;;;;123.25;116.85;;;;;;;21.44;57.76;100767.69;4966021;28;20455;-67
2023/10/03 03:33:19;;;;;;;121.88;115.63;;;;;;;21.41;57.86;100768.31;4965287;28;20046;-67
2023/10/03 03:35:48;;;;;;;119.72;113.60;;;;;;;21.42;58.03;100763.63;4980029;28;20030;-67
2023/10/03 03:38:18;;;;;;;121.10;115.07;;;;;;;21.42;58.22;100764.47;4960878;28;20035;-67
2023/10/03 03:40:53;;;;;;;124.05;117.90;;;;;;;21.42;58.25;100758.97;4961144;28;20117;-67
2023/10/03 03:43:21;;;;;;;119.00;112.85;;;;;;;21.42;58.33;100764.47;4966774;28;20043;-67
2023/10/03 03:45:47;;;;;;;123.80;117.75;;;;;;;21.41;57.86;100764.75;4955038;28;20038;-67
2023/10/03 03:48:18;;;;;;;120.68;114.32;;;;;;;21.40;58.18;100780.44;4967463;28;20035;-67
2023/10/03 03:50:44;;;;;;;122.47;116.65;;;;;;;21.38;58.19;100789.00;4965953;28;20541;-67
2023/10/03 03:53:10;;;;;;;120.07;114.25;;;;;;;21.38;58.61;100790.91;4958749;28;20499;-66
2023/10/03 03:55:37;;;;;;;121.20;114.95;;;;;;;21.36;58.24;100791.22;4963411;28;20054;-67
2023/10/03 03:58:07;;;;;;;119.95;114.22;;;;;;;21.35;58.27;100788.78;4971072;28;20041;-67
2023/10/03 04:00:34;;;;;;;120.10;114.40;;;;;;;21.35;58.34;100794.28;4961754;28;20039;-67
2023/10/03 04:03:05;;;;;;;119.18;113.65;;;;;;;21.35;58.57;100802.53;4967825;28;20035;-67
2023/10/03 04:05:32;;;;;;;120.82;113.18;;;;;;;21.35;58.50;100808.03;4965836;28;20026;-67
2023/10/03 04:07:59;;;;;;;120.18;114.28;;;;;;;21.33;58.44;100805.56;4966737;28;20049;-67
2023/10/03 04:10:26;;;;;;;121.88;115.80;;;;;;;21.34;58.53;100806.38;4968833;28;20093;-67
2023/10/03 04:12:51;;;;;;;120.70;114.75;;;;;;;21.35;58.22;100819.00;4971183;28;20034;-67
2023/10/03 04:15:20;;;;;;;116.75;111.57;;;;;;;21.34;58.64;100826.44;4968283;28;20041;-67
2023/10/03 04:17:49;;;;;;;116.03;110.93;;;;;;;21.32;58.50;100838.88;4968443;28;20086;-67
2023/10/03 04:20:31;;;;;;;120.30;114.30;;;;;;;21.29;58.83;100842.22;4962208;28;20102;-66
2023/10/03 04:22:59;;;;;;;116.60;110.70;;;;;;;21.28;58.64;100833.19;4965250;28;20034;-69
2023/10/03 04:25:26;;;;;;;119.07;113.85;;;;;;;21.26;58.30;100853.84;4966895;28;20038;-67
2023/10/03 04:27:54;;;;;;;114.05;108.85;;;;;;;21.26;58.78;100843.66;4959460;28;20031;-66
2023/10/03 04:30:21;;;;;;;116.53;110.93;;;;;;;21.26;58.35;100831.88;4954960;28;20179;-66
2023/10/03 04:32:49;;;;;;;118.32;112.80;;;;;;;21.26;58.57;100831.88;4968805;28;20027;-67
2023/10/03 04:35:18;;;;;;;120.82;114.93;;;;;;;21.26;58.14;100843.66;4967680;28;20030;-67
2023/10/03 04:37:44;;;;;;;117.10;111.70;;;;;;;21.28;58.54;100843.38;4961182;28;20031;-68
2023/10/03 04:40:27;;;;;;;119.32;113.65;;;;;;;21.28;58.09;100837.88;4966107;28;20049;-67
2023/10/03 04:42:53;;;;;;;117.65;112.03;;;;;;;21.27;58.35;100856.28;4965814;28;20476;-67
2023/10/03 04:45:19;;;;;;;122.15;115.95;;;;;;;21.25;58.53;100854.97;4965748;28;20035;-67
2023/10/03 04:47:48;;;;;;;120.85;114.38;;;;;;;21.24;58.53;100858.84;4966229;28;20047;-67
2023/10/03 04:50:18;;;;;;;120.63;113.75;;;;;;;21.23;58.42;100857.22;4968854;28;20035;-67
2023/10/03 04:52:48;;;;;;;118.97;113.47;;;;;;;21.20;58.47;100853.16;4968814;28;20445;-67
2023/10/03 04:55:22;;;;;;;119.05;113.35;;;;;;;21.20;58.49;100857.84;4962141;28;20124;-67
2023/10/03 04:57:50;;;;;;;121.65;115.57;;;;;;;21.18;58.66;100834.25;4965772;28;20038;-67
2023/10/03 05:00:19;;;;;;;120.28;114.28;;;;;;;21.18;58.56;100823.25;4965295;28;20512;-67
2023/10/03 05:02:47;;;;;;;115.68;110.50;;;;;;;21.18;58.16;100831.50;4966969;28;20399;-68
2023/10/03 05:05:21;;;;;;;119.03;113.43;;;;;;;21.18;58.35;100834.25;4971353;28;20113;-66
2023/10/03 05:07:52;;;;;;;118.60;112.68;;;;;;;21.18;58.57;100842.47;4967889;28;20344;-67
2023/10/03 05:10:18;;;;;;;120.68;114.72;;;;;;;21.20;58.10;100850.41;4962738;28;20046;-67
2023/10/03 05:12:48;;;;;;;118.32;112.93;;;;;;;21.20;58.34;100869.66;4969785;28;20038;-68
2023/10/03 05:15:17;;;;;;;118.20;112.82;;;;;;;21.19;58.70;100876.25;4966221;28;20063;-65
2023/10/03 05:17:47;;;;;;;118.88;113.68;;;;;;;21.16;58.20;100879.63;4967377;28;20039;-67
2023/10/03 05:20:17;;;;;;;116.53;111.22;;;;;;;21.14;58.47;100859.88;4971939;28;20077;-68
2023/10/03 05:22:45;;;;;;;118.88;113.35;;;;;;;21.14;58.73;100852.47;4966482;28;20038;-69
2023/10/03 05:25:12;;;;;;;113.88;108.93;;;;;;;21.15;58.25;100856.03;4962939;28;20046;-67
2023/10/03 05:27:43;;;;;;;116.38;110.85;;;;;;;21.15;58.28;100865.09;4967434;28;20133;-67
2023/10/03 05:30:14;;;;;;;115.53;110.43;;;;;;;21.15;58.56;100858.78;4965221;28;20497;-70
2023/10/03 05:32:41;;;;;;;119.28;113.78;;;;;;;21.14;58.66;100863.47;4965533;28;20031;-67
2023/10/03 05:35:07;;;;;;;117.88;111.60;;;;;;;21.16;58.65;100863.16;4973980;28;20066;-67
2023/10/03 05:37:33;;;;;;;115.63;110.22;;;;;;;21.14;58.20;100866.22;4972681;28;20480;-67
2023/10/03 05:39:59;;;;;;;115.05;109.63;;;;;;;21.13;58.63;100853.59;4976248;28;20039;-65
2023/10/03 05:42:26;;;;;;;119.90;114.28;;;;;;;21.15;58.33;100861.53;4974560;28;20078;-67
2023/10/03 05:44:53;;;;;;;117.53;111.93;;;;;;;21.15;58.67;100878.00;4969265;28;20042;-67
2023/10/03 05:47:20;;;;;;;118.97;113.35;;;;;;;21.15;58.83;100878.00;4972339;28;20042;-66
2023/10/03 05:49:45;;;;;;;119.85;114.40;;;;;;;21.15;58.24;100872.50;4976496;28;20475;-66
2023/10/03 05:52:11;;;;;;;116.38;111.03;;;;;;;21.16;58.44;100874.13;4972042;28;20042;-70
2023/10/03 05:54:37;;;;;;;120.05;114.55;;;;;;;21.17;58.52;100867.53;4971360;28;20035;-67
2023/10/03 05:57:03;;;;;;;116.32;111.03;;;;;;;21.16;58.12;100866.69;4972219;28;20038;-67
2023/10/03 05:59:29;;;;;;;119.47;114.07;;;;;;;21.15;58.66;100878.81;4973555;28;20052;-66
2023/10/03 06:01:57;;;;;;;118.50;113.03;;;;;;;21.15;58.45;100894.50;4972254;28;20031;-67
2023/10/03 06:04:23;;;;;;;118.05;112.75;;;;;;;21.13;58.28;100889.28;4977335;28;20482;-66
2023/10/03 06:06:49;;;;;;;118.03;111.95;;;;;;;21.14;58.80;100892.84;4975954;28;20033;-66
2023/10/03 06:09:15;;;;;;;116.38;111.05;;;;;;;21.13;58.78;100892.03;4973181;28;20055;-69
2023/10/03 06:11:40;;;;;;;115.72;110.53;;;;;;;21.13;58.45;100907.72;4972686;28;20640;-65
2023/10/03 06:14:06;;;;;;;116.60;111.30;;;;;;;21.10;58.44;100913.84;4974050;28;20087;-65
2023/10/03 06:16:31;;;;;;;117.20;111.93;;;;;;;21.06;58.98;100919.13;4965822;28;20027;-67
2023/10/03 06:18:57;;;;;;;114.03;108.82;;;;;;;21.06;58.90;100929.28;4973893;28;20062;-67
2023/10/03 06:21:23;;;;;;;115.53;110.07;;;;;;;21.03;58.87;100935.41;4965038;28;20038;-68
2023/10/03 06:23:50;;;;;;;119.85;114.50;;;;;;;21.03;59.11;100925.25;4973894;28;20050;-67
2023/10/03 06:26:20;;;;;;;120.93;115.63;;;;;;;21.03;58.96;100917.00;4977494;28;20121;-70
2023/10/03 06:28:46;;;;;;;116.75;111.63;;;;;;;21.01;59.00;100926.66;4972627;28;20035;-67
2023/10/03 06:31:11;;;;;;;114.07;108.88;;;;;;;21.01;58.76;100934.91;4968327;28;20031;-66
2023/10/03 06:33:39;;;;;;;114.53;109.38;;;;;;;21.03;58.78;100936.22;4963158;28;20186;-66
2023/10/03 06:36:06;;;;;;;113.80;108.53;;;;;;;21.05;58.94;100938.66;4974246;28;20368;-66
2023/10/03 06:38:32;;;;;;;115.82;110.75;;;;;;;21.05;59.26;100936.72;4972583;28;20049;-66
2023/10/03 06:40:57;;;;;;;116.13;110.82;;;;;;;21.04;58.78;100937.88;4966757;28;20039;-66
2023/10/03 06:43:23;;;;;;;116.57;111.20;;;;;;;21.05;58.65;100931.25;4968411;28;20045;-66
2023/10/03 06:45:48;;;;;;;118.95;113.32;;;;;;;21.06;58.77;100935.59;4966620;28;20069;-66
2023/10/03 06:48:14;;;;;;;117.65;111.93;;;;;;;21.07;58.97;100948.22;4967388;28;20065;-67
2023/10/03 06:50:42;;;;;;;121.93;116.15;;;;;;;21.08;58.77;100957.28;4967132;28;20093;-67
2023/10/03 06:53:08;;;;;;;117.15;112.00;;;;;;;21.07;58.99;100953.72;4971729;28;20097;-66
2023/10/03 06:55:35;;;;;;;117.93;112.45;;;;;;;21.08;59.00;100960.03;4970869;28;20046;-66
2023/10/03 06:58:01;;;;;;;116.63;111.15;;;;;;;21.09;58.92;100964.38;4972003;28;20504;-66
2023/10/03 07:00:27;;;;;;;114.00;108.75;;;;;;;21.09;59.00;100967.13;4966299;28;20035;-66
2023/10/03 07:02:53;;;;;;;117.40;111.88;;;;;;;21.09;59.21;100959.72;4961923;28;20494;-66
2023/10/03 07:05:19;;;;;;;116.80;111.57;;;;;;;21.08;59.15;100971.81;4968800;28;20061;-67
2023/10/03 07:07:44;;;;;;;117.40;111.95;;;;;;;21.07;58.63;100972.94;4965960;28;20419;-67
2023/10/03 07:10:10;;;;;;;111.85;106.55;;;;;;;21.08;59.00;100971.81;4964940;28;20121;-75
2023/10/03 07:12:35;;;;;;;117.25;111.28;;;;;;;21.10;59.19;100969.56;4957495;28;20039;-66
2023/10/03 07:15:00;;;;;;;117.15;111.50;;;;;;;21.11;59.07;100965.69;4972164;28;20364;-68
2023/10/03 07:17:26;;;;;;;115.85;110.30;;;;;;;21.12;59.15;100972.84;4965045;28;20137;-68
2023/10/03 07:19:51;;;;;;;117.72;112.03;;;;;;;21.11;58.77;100971.19;4972003;28;20085;-67
2023/10/03 07:22:20;;;;;;;117.53;111.93;;;;;;;21.13;59.31;100973.63;4963198;28;20501;-66
2023/10/03 07:24:45;;;;;;;118.63;113.13;;;;;;;21.13;58.77;100971.69;4966123;28;20069;-66
2023/10/03 07:27:14;;;;;;;119.95;114.47;;;;;;;21.13;59.19;100977.19;4967716;28;20110;-66
2023/10/03 07:29:42;;;;;;;120.70;114.63;;;;;;;21.15;58.76;100985.13;4956813;28;20117;-66
2023/10/03 07:32:12;;;;;;;113.63;108.32;;;;;;;21.14;59.27;100983.50;4970677;28;20039;-66
2023/10/03 07:34:42;;;;;;;115.90;110.68;;;;;;;21.14;59.18;100978.00;4972580;28;20145;-66
2023/10/03 07:37:09;;;;;;;115.85;110.43;;;;;;;21.13;58.99;100993.69;4966247;28;20054;-66
2023/10/03 07:39:34;;;;;;;119.07;113.75;;;;;;;21.13;59.12;101006.59;4967379;28;20065;-66
2023/10/03 07:42:01;;;;;;;115.07;109.78;;;;;;;21.10;59.39;101013.53;4966229;28;20122;-65
2023/10/03 07:44:27;;;;;;;115.63;109.93;;;;;;;21.10;59.33;101020.97;4973007;28;20050;-66
2023/10/03 07:46:52;;;;;;;115.78;110.47;;;;;;;21.07;59.42;101038.06;4968858;28;20035;-66
2023/10/03 07:49:17;;;;;;;115.28;110.03;;;;;;;21.05;59.04;101037.53;4972988;28;20055;-66
2023/10/03 07:51:43;;;;;;;117.32;111.75;;;;;;;21.04;59.67;101028.50;4967144;28;20062;-66
2023/10/03 07:54:09;;;;;;;114.95;109.82;;;;;;;21.04;58.91;101027.66;4972173;28;20121;-66
2023/10/03 07:56:34;;;;;;;114.90;109.72;;;;;;;21.03;59.04;101046.06;4969879;28;20035;-66
2023/10/03 07:59:01;;;;;;;112.68;107.47;;;;;;;21.03;59.07;101050.75;4962153;28;20027;-66
2023/10/03 08:01:28;;;;;;;112.82;107.72;;;;;;;21.01;59.15;101058.50;4970006;28;20407;-68
2023/10/03 08:03:54;;;;;;;117.93;112.75;;;;;;;21.01;59.54;101085.94;4970518;28;20189;-66
2023/10/03 08:06:27;;;;;;;112.43;107.47;;;;;;;21.00;59.03;101076.91;4954505;28;20058;-66
2023/10/03 08:08:59;;;;;;;111.50;106.60;;;;;;;21.02;59.55;101076.63;4954148;28;20126;-66
2023/10/03 08:11:31;;;;;;;112.05;106.95;;;;;;;21.01;59.02;101083.19;4965405;28;20052;-66
2023/10/03 08:13:58;;;;;;;115.53;110.22;;;;;;;21.00;59.43;101093.38;4959139;28;20118;-66
2023/10/03 08:16:25;;;;;;;115.03;110.05;;;;;;;20.98;59.08;101098.34;4954706;28;20031;-66
2023/10/03 08:18:57;;;;;;;116.18;110.97;;;;;;;20.98;59.02;101105.78;4971411;28;20476;-66
2023/10/03 08:21:29;;;;;;;111.45;106.68;;;;;;;21.00;59.02;101112.59;4965271;28;20045;-66
2023/10/03 08:23:58;;;;;;;110.22;105.43;;;;;;;21.00;59.43;101129.09;4957644;28;20038;-66
2023/10/03 08:26:25;;;;;;;112.50;107.70;;;;;;;21.01;59.16;101143.63;4971863;28;20090;-66
2023/10/03 08:29:04;;;;;;;113.40;108.20;;;;;;;21.00;58.83;101126.34;4971219;28;20031;-66
2023/10/03 08:31:30;;;;;;;111.82;107.03;;;;;;;20.99;59.12;101129.38;4965370;28;20033;-66
2023/10/03 08:33:55;;;;;;;112.63;107.78;;;;;;;20.99;59.10;101143.09;4971544;28;20313;-66
2023/10/03 08:36:28;;;;;;;112.10;107.20;;;;;;;21.00;59.17;101155.75;4971850;28;20491;-66
2023/10/03 08:39:04;;;;;;;114.88;109.70;;;;;;;20.98;59.25;101174.44;4970617;28;20394;-66
2023/10/03 08:41:57;;;;;;;116.25;111.28;;;;;;;20.95;58.94;101175.88;4967504;28;20034;-66
2023/10/03 08:44:24;;;;;;;111.15;106.40;;;;;;;20.93;58.82;101194.56;4958270;28;20530;-66
2023/10/03 08:46:55;;;;;;;111.70;106.90;;;;;;;20.92;59.07;101191.00;4958934;28;20178;-66
2023/10/03 08:49:38;;;;;;;109.40;104.70;;;;;;;20.93;59.15;101200.06;4959644;28;20039;-66
2023/10/03 08:52:05;;;;;;;114.32;109.47;;;;;;;20.92;59.47;101206.69;4964040;28;20047;-66
2023/10/03 08:54:36;;;;;;;107.88;103.28;;;;;;;20.94;59.00;101210.75;4960024;28;20514;-66
2023/10/03 08:57:03;;;;;;;111.85;107.05;;;;;;;20.95;59.11;101201.38;4969567;28;20050;-66
2023/10/03 08:59:30;;;;;;;109.65;104.95;;;;;;;20.97;59.11;101195.59;4968820;28;20030;-66
2023/10/03 09:02:00;;;;;;;109.17;104.17;;;;;;;20.99;58.73;101200.78;4970658;28;20035;-66
2023/10/03 09:04:37;;;;;;;110.32;105.60;;;;;;;21.00;58.77;101208.72;4957660;28;20354;-66
2023/10/03 09:07:08;;;;;;;111.80;107.00;;;;;;;21.00;59.21;101199.69;4960499;28;20039;-66
2023/10/03 09:09:35;;;;;;;113.70;108.90;;;;;;;21.01;59.22;101207.59;4961478;28;20403;-66
2023/10/03 09:12:01;;;;;;;112.22;107.13;;;;;;;21.01;59.14;101217.78;4964321;28;20039;-66
2023/10/03 09:14:28;;;;;;;113.53;108.53;;;;;;;21.02;58.95;101238.66;4953764;28;20113;-66
2023/10/03 09:16:59;;;;;;;118.63;113.50;;;;;;;21.03;58.68;101254.81;4963427;28;20035;-66
2023/10/03 09:19:44;;;;;;;110.90;106.00;;;;;;;21.03;59.14;101257.56;4953461;28;20039;-66
2023/10/03 09:22:10;;;;;;;111.10;106.22;;;;;;;21.03;58.79;101257.56;4959970;28;20030;-67
2023/10/03 09:24:43;;;;;;;110.70;105.60;;;;;;;21.03;59.11;101268.53;4955467;28;20031;-66
2023/10/03 09:27:10;;;;;;;114.80;109.70;;;;;;;21.03;58.75;101268.53;4965342;28;20041;-67
2023/10/03 09:29:35;;;;;;;118.07;113.07;;;;;;;21.01;58.83;101295.50;4963861;28;20031;-67
2023/10/03 09:32:12;;;;;;;115.20;110.30;;;;;;;20.96;58.94;101282.69;4957197;28;20031;-67
2023/10/03 09:34:41;;;;;;;114.53;109.68;;;;;;;20.97;59.04;101283.50;4964807;28;20400;-67
2023/10/03 09:37:07;;;;;;;112.10;107.28;;;;;;;20.95;58.63;101292.00;4963742;28;20054;-67
2023/10/03 09:39:57;;;;;;;111.78;107.00;;;;;;;20.94;58.96;101284.06;4953123;28;20037;-67
2023/10/03 09:42:23;;;;;;;111.20;106.50;;;;;;;20.95;58.88;101288.47;4955335;28;20047;-67
2023/10/03 09:44:49;;;;;;;111.82;107.00;;;;;;;20.96;58.58;101284.59;4954375;28;20546;-67
2023/10/03 09:47:18;;;;;;;112.47;107.70;;;;;;;20.97;58.91;101294.47;4963995;28;20038;-67
2023/10/03 09:49:47;;;;;;;117.10;112.05;;;;;;;20.99;58.45;101302.41;4964614;28;20061;-70
2023/10/03 09:52:22;;;;;;;114.68;109.57;;;;;;;20.98;59.00;101303.53;4957389;28;20480;-67
2023/10/03 09:54:53;;;;;;;117.88;110.55;;;;;;;20.97;59.07;101324.69;4952838;28;20059;-70
2023/10/03 09:57:22;;;;;;;111.68;106.82;;;;;;;20.96;58.54;101318.38;4956737;28;20058;-66
2023/10/03 09:59:49;;;;;;;115.45;110.07;;;;;;;20.95;58.96;101327.72;4961863;28;20111;-69
2023/10/03 10:02:16;;;;;;;115.22;110.25;;;;;;;20.95;58.60;101341.44;4963977;28;20091;-67
2023/10/03 10:04:47;;;;;;;114.70;109.78;;;;;;;20.94;58.87;101333.50;4953105;28;20031;-67
2023/10/03 10:07:29;;;;;;;113.05;108.25;;;;;;;20.94;58.47;101344.47;4958717;28;20031;-67
2023/10/03 10:10:19;;;;;;;115.18;109.93;;;;;;;20.94;58.41;101352.72;4959319;28;20169;-67
2023/10/03 10:13:13;;;;;;;111.63;106.90;;;;;;;20.93;58.72;101356.59;4967600;28;20035;-67
2023/10/03 10:16:00;;;;;;;109.38;104.72;;;;;;;20.89;58.43;101369.28;4955545;28;20114;-67
2023/10/03 10:18:44;;;;;;;112.00;107.20;;;;;;;20.85;58.92;101380.03;4954937;28;20035;-67
2023/10/03 10:21:25;;;;;;;115.70;110.47;;;;;;;20.84;59.06;101380.31;4970180;28;20125;-67
2023/10/03 10:24:11;;;;;;;115.38;110.47;;;;;;;20.85;58.94;101387.47;4963461;28;20041;-67
2023/10/03 10:26:38;;;;;;;110.20;105.50;;;;;;;20.86;58.70;101386.34;4971001;28;20042;-67
2023/10/03 10:29:14;;;;;;;114.13;109.18;;;;;;;20.87;58.52;101402.53;4967427;28;20050;-75
2023/10/03 10:31:44;;;;;;;111.10;106.32;;;;;;;20.85;58.69;101407.50;4972291;28;20042;-76
2023/10/03 10:34:21;;;;;;;114.05;108.75;;;;;;;20.83;59.02;101415.22;4960850;28;20041;-77
2023/10/03 10:37:01;;;;;;;110.70;105.97;;;;;;;20.79;58.79;101416.94;4973171;28;20039;-81
2023/10/03 10:43:06;;;;;;;111.72;106.80;;;;;;;20.73;58.69;101431.81;4974250;28;20122;-84
2023/10/03 10:45:38;;;;;;;108.15;103.55;;;;;;;20.68;58.87;101440.94;4961128;28;20595;-67
2023/10/03 10:48:05;;;;;;;112.00;106.97;;;;;;;20.65;59.10;101444.28;4960764;28;20042;-65
2023/10/03 10:51:04;;;;;;;112.38;107.63;;;;;;;20.65;58.82;101443.47;4967103;28;20487;-65
2023/10/03 10:53:43;;;;;;;110.57;105.85;;;;;;;20.65;59.40;101454.44;4960809;28;20032;-65
2023/10/03 10:56:10;;;;;;;109.18;104.38;;;;;;;20.65;59.06;101447.03;4963315;28;20126;-65
2023/10/03 10:58:53;;;;;;;108.90;104.30;;;;;;;20.66;59.03;101450.56;4969480;28;20035;-66
2023/10/03 11:01:22;;;;;;;109.93;105.25;;;;;;;20.67;59.30;101444.00;4970351;28;20035;-64
2023/10/03 11:03:48;;;;;;;;;;;;;;;20.68;59.08;101448.38;4956332;28;20031;-65
2023/10/03 11:06:17;;;;;;;107.60;102.93;;;;;;;20.68;59.46;101449.16;4955464;28;20009;-65
2023/10/03 11:08:47;;;;;;;109.50;104.30;;;;;;;20.71;59.13;101456.84;4971790;28;20090;-67